createdAt,value
2017-02-14T00:00:07.519Z,0
2017-02-14T00:01:07.723Z,0
2017-02-14T00:02:08.216Z,0
2017-02-14T00:03:08.152Z,0
2017-02-14T00:04:07.382Z,0
2017-02-14T00:05:08.070Z,0
2017-02-14T00:06:07.462Z,0
2017-02-14T00:07:07.840Z,0
2017-02-14T00:08:07.965Z,0
2017-02-14T00:09:08.452Z,0
2017-02-14T00:10:07.782Z,0
2017-02-14T00:11:07.959Z,0
2017-02-14T00:12:09.313Z,0
2017-02-14T00:13:08.397Z,0
2017-02-14T00:14:07.652Z,0
2017-02-14T00:15:08.759Z,0
2017-02-14T00:16:09.663Z,0
2017-02-14T00:17:08.713Z,0
2017-02-14T00:18:08.141Z,0
2017-02-14T00:19:07.791Z,0
2017-02-14T00:20:08.609Z,0
2017-02-14T00:21:09.166Z,0
2017-02-14T00:22:08.565Z,0
2017-02-14T00:23:07.894Z,0
2017-02-14T00:24:08.321Z,0
2017-02-14T00:25:08.743Z,0
2017-02-14T00:26:09.035Z,0
2017-02-14T00:27:08.433Z,0
2017-02-14T00:28:08.823Z,0
2017-02-14T00:29:08.451Z,0
2017-02-14T00:30:08.571Z,0
2017-02-14T00:31:09.002Z,0
2017-02-14T00:32:08.656Z,0
2017-02-14T00:33:09.449Z,0
2017-02-14T00:34:08.584Z,0
2017-02-14T00:35:08.207Z,0
2017-02-14T00:36:08.879Z,0
2017-02-14T00:37:09.548Z,0
2017-02-14T00:38:09.273Z,0
2017-02-14T00:39:08.213Z,0
2017-02-14T00:40:08.765Z,0
2017-02-14T00:41:09.445Z,0
2017-02-14T00:42:09.581Z,0
2017-02-14T00:43:09.317Z,0
2017-02-14T00:44:09.562Z,0
2017-02-14T00:45:08.865Z,0
2017-02-14T00:46:09.410Z,0
2017-02-14T00:47:08.929Z,0
2017-02-14T00:48:08.563Z,0
2017-02-14T00:49:08.971Z,0
2017-02-14T00:50:09.207Z,0
2017-02-14T00:51:09.678Z,0
2017-02-14T00:52:09.478Z,0
2017-02-14T00:53:09.101Z,0
2017-02-14T00:54:09.160Z,0
2017-02-14T00:55:09.552Z,0
2017-02-14T00:56:09.822Z,0
2017-02-14T00:57:09.633Z,0
2017-02-14T00:58:08.814Z,0
2017-02-14T00:59:09.273Z,0
2017-02-14T01:00:09.301Z,0
2017-02-14T01:01:09.254Z,0
2017-02-14T01:02:09.010Z,0
2017-02-14T01:03:09.053Z,0
2017-02-14T01:04:09.438Z,0
2017-02-14T01:05:09.025Z,0
2017-02-14T01:06:09.456Z,0
2017-02-14T01:07:08.659Z,0
2017-02-14T01:08:09.872Z,0
2017-02-14T01:09:09.560Z,0
2017-02-14T01:10:09.929Z,0
2017-02-14T01:11:09.114Z,0
2017-02-14T01:12:09.982Z,0
2017-02-14T01:13:10.082Z,0
2017-02-14T01:14:10.024Z,0
2017-02-14T01:15:09.652Z,0
2017-02-14T01:16:09.718Z,0
2017-02-14T01:17:09.953Z,0
2017-02-14T01:18:09.751Z,0
2017-02-14T01:19:10.166Z,0
2017-02-14T01:20:09.773Z,0
2017-02-14T01:21:09.412Z,0
2017-02-14T01:22:10.494Z,0
2017-02-14T01:23:09.466Z,0
2017-02-14T01:24:09.884Z,0
2017-02-14T01:25:09.514Z,0
2017-02-14T01:26:09.148Z,0
2017-02-14T01:27:09.439Z,0
2017-02-14T01:28:10.014Z,0
2017-02-14T01:29:10.022Z,0
2017-02-14T01:30:10.047Z,0
2017-02-14T01:31:10.067Z,0
2017-02-14T01:32:10.347Z,0
2017-02-14T01:33:10.522Z,0
2017-02-14T01:34:10.146Z,0
2017-02-14T01:35:10.185Z,0
2017-02-14T01:36:10.627Z,0
2017-02-14T01:37:10.752Z,0
2017-02-14T01:38:10.253Z,0
2017-02-14T01:39:10.682Z,0
2017-02-14T01:40:10.715Z,0
2017-02-14T01:41:10.732Z,0
2017-02-14T01:42:10.607Z,0
2017-02-14T01:43:10.380Z,0
2017-02-14T01:44:10.413Z,0
2017-02-14T01:45:10.038Z,0
2017-02-14T01:46:10.865Z,0
2017-02-14T01:47:10.732Z,0
2017-02-14T01:48:09.745Z,0
2017-02-14T01:49:10.156Z,0
2017-02-14T01:50:10.960Z,0
2017-02-14T01:51:10.627Z,0
2017-02-14T01:52:10.896Z,0
2017-02-14T01:53:10.260Z,0
2017-02-14T01:54:10.265Z,0
2017-02-14T01:55:10.310Z,0
2017-02-14T01:56:10.754Z,0
2017-02-14T01:57:11.419Z,0
2017-02-14T01:58:10.388Z,0
2017-02-14T01:59:11.212Z,0
2017-02-14T02:00:11.237Z,0
2017-02-14T02:01:11.245Z,0
2017-02-14T02:02:11.791Z,0
2017-02-14T02:03:10.919Z,0
2017-02-14T02:04:10.956Z,0
2017-02-14T02:05:11.000Z,0
2017-02-14T02:06:10.585Z,0
2017-02-14T02:07:11.030Z,0
2017-02-14T02:08:10.895Z,0
2017-02-14T02:09:11.455Z,0
2017-02-14T02:10:11.088Z,0
2017-02-14T02:11:11.133Z,0
2017-02-14T02:12:11.538Z,0
2017-02-14T02:13:11.454Z,0
2017-02-14T02:14:10.408Z,0
2017-02-14T02:15:10.852Z,0
2017-02-14T02:16:11.640Z,0
2017-02-14T02:17:10.890Z,0
2017-02-14T02:18:11.973Z,0
2017-02-14T02:19:11.344Z,0
2017-02-14T02:20:11.358Z,0
2017-02-14T02:21:11.388Z,0
2017-02-14T02:22:11.018Z,0
2017-02-14T02:23:11.738Z,0
2017-02-14T02:24:11.462Z,0
2017-02-14T02:25:11.091Z,0
2017-02-14T02:26:11.499Z,0
2017-02-14T02:27:11.163Z,0
2017-02-14T02:28:11.038Z,0
2017-02-14T02:29:12.022Z,0
2017-02-14T02:30:12.011Z,0
2017-02-14T02:31:11.655Z,0
2017-02-14T02:32:11.647Z,0
2017-02-14T02:33:11.544Z,0
2017-02-14T02:34:11.721Z,0
2017-02-14T02:35:10.966Z,0
2017-02-14T02:36:11.375Z,0
2017-02-14T02:37:11.404Z,0
2017-02-14T02:38:12.073Z,0
2017-02-14T02:39:11.845Z,0
2017-02-14T02:40:12.269Z,0
2017-02-14T02:41:12.331Z,0
2017-02-14T02:42:11.520Z,0
2017-02-14T02:43:12.212Z,0
2017-02-14T02:44:11.969Z,0
2017-02-14T02:45:12.003Z,0
2017-02-14T02:46:12.023Z,0
2017-02-14T02:47:12.057Z,0
2017-02-14T02:48:12.245Z,0
2017-02-14T02:49:11.712Z,0
2017-02-14T02:50:12.526Z,0
2017-02-14T02:51:11.763Z,0
2017-02-14T02:52:11.798Z,0
2017-02-14T02:53:11.671Z,0
2017-02-14T02:54:12.240Z,0
2017-02-14T02:55:12.254Z,0
2017-02-14T02:56:11.890Z,0
2017-02-14T02:57:12.315Z,0
2017-02-14T02:58:13.047Z,0
2017-02-14T02:59:12.780Z,0
2017-02-14T03:00:12.809Z,0
2017-02-14T03:01:12.442Z,0
2017-02-14T03:02:12.877Z,0
2017-02-14T03:03:12.091Z,0
2017-02-14T03:04:12.351Z,0
2017-02-14T03:05:12.161Z,0
2017-02-14T03:06:12.173Z,0
2017-02-14T03:07:12.577Z,0
2017-02-14T03:08:13.002Z,0
2017-02-14T03:09:13.125Z,0
2017-02-14T03:10:12.636Z,0
2017-02-14T03:11:12.276Z,0
2017-02-14T03:12:12.705Z,0
2017-02-14T03:13:12.351Z,0
2017-02-14T03:14:13.663Z,0
2017-02-14T03:15:12.779Z,0
2017-02-14T03:16:12.811Z,0
2017-02-14T03:17:13.241Z,0
2017-02-14T03:18:13.249Z,0
2017-02-14T03:19:13.128Z,0
2017-02-14T03:20:12.531Z,0
2017-02-14T03:21:12.942Z,0
2017-02-14T03:22:12.972Z,0
2017-02-14T03:23:12.576Z,0
2017-02-14T03:24:13.262Z,0
2017-02-14T03:25:13.049Z,0
2017-02-14T03:26:13.115Z,0
2017-02-14T03:27:13.084Z,0
2017-02-14T03:28:13.520Z,0
2017-02-14T03:29:13.795Z,0
2017-02-14T03:30:12.770Z,0
2017-02-14T03:31:13.598Z,0
2017-02-14T03:32:12.813Z,0
2017-02-14T03:33:13.240Z,0
2017-02-14T03:34:13.268Z,0
2017-02-14T03:35:13.966Z,0
2017-02-14T03:36:13.305Z,0
2017-02-14T03:37:12.942Z,0
2017-02-14T03:38:12.982Z,0
2017-02-14T03:39:13.404Z,0
2017-02-14T03:40:12.881Z,0
2017-02-14T03:41:13.849Z,0
2017-02-14T03:42:13.071Z,0
2017-02-14T03:43:13.094Z,0
2017-02-14T03:44:13.128Z,0
2017-02-14T03:45:13.818Z,0
2017-02-14T03:46:13.582Z,0
2017-02-14T03:47:13.602Z,0
2017-02-14T03:48:13.229Z,0
2017-02-14T03:49:13.671Z,0
2017-02-14T03:50:14.205Z,0
2017-02-14T03:51:13.717Z,0
2017-02-14T03:52:13.338Z,0
2017-02-14T03:53:12.963Z,0
2017-02-14T03:54:13.799Z,0
2017-02-14T03:55:14.059Z,0
2017-02-14T03:56:13.049Z,0
2017-02-14T03:57:13.464Z,0
2017-02-14T03:58:13.894Z,0
2017-02-14T03:59:13.113Z,0
2017-02-14T04:00:14.043Z,0
2017-02-14T04:01:13.569Z,0
2017-02-14T04:02:14.386Z,0
2017-02-14T04:03:14.026Z,0
2017-02-14T04:04:14.442Z,0
2017-02-14T04:05:13.950Z,0
2017-02-14T04:06:13.696Z,0
2017-02-14T04:07:14.116Z,0
2017-02-14T04:08:13.781Z,0
2017-02-14T04:09:14.174Z,0
2017-02-14T04:10:14.454Z,0
2017-02-14T04:11:14.256Z,0
2017-02-14T04:12:14.645Z,0
2017-02-14T04:13:14.682Z,0
2017-02-14T04:14:14.702Z,0
2017-02-14T04:15:14.599Z,0
2017-02-14T04:16:13.956Z,0
2017-02-14T04:17:14.796Z,0
2017-02-14T04:18:14.413Z,0
2017-02-14T04:19:14.029Z,0
2017-02-14T04:20:14.050Z,0
2017-02-14T04:21:14.740Z,0
2017-02-14T04:22:14.512Z,0
2017-02-14T04:23:14.553Z,0
2017-02-14T04:24:13.784Z,0
2017-02-14T04:25:14.590Z,0
2017-02-14T04:26:14.490Z,0
2017-02-14T04:27:14.232Z,0
2017-02-14T04:28:15.065Z,0
2017-02-14T04:29:14.685Z,0
2017-02-14T04:30:14.726Z,0
2017-02-14T04:31:14.987Z,0
2017-02-14T04:32:14.374Z,0
2017-02-14T04:33:14.423Z,0
2017-02-14T04:34:14.820Z,0
2017-02-14T04:35:14.041Z,0
2017-02-14T04:36:15.122Z,0
2017-02-14T04:37:14.502Z,0
2017-02-14T04:38:14.516Z,0
2017-02-14T04:39:14.545Z,0
2017-02-14T04:40:14.977Z,0
2017-02-14T04:41:15.253Z,0
2017-02-14T04:42:14.649Z,0
2017-02-14T04:43:14.639Z,0
2017-02-14T04:44:15.072Z,0
2017-02-14T04:45:14.321Z,0
2017-02-14T04:46:14.977Z,0
2017-02-14T04:47:14.754Z,0
2017-02-14T04:48:15.167Z,0
2017-02-14T04:49:15.603Z,0
2017-02-14T04:50:15.641Z,0
2017-02-14T04:51:15.497Z,0
2017-02-14T04:52:15.262Z,0
2017-02-14T04:53:15.302Z,0
2017-02-14T04:54:14.544Z,0
2017-02-14T04:55:15.747Z,0
2017-02-14T04:56:15.901Z,0
2017-02-14T04:57:15.795Z,0
2017-02-14T04:58:15.034Z,0
2017-02-14T04:59:15.850Z,0
2017-02-14T05:00:14.678Z,0
2017-02-14T05:01:15.368Z,0
2017-02-14T05:02:15.133Z,0
2017-02-14T05:03:15.567Z,0
2017-02-14T05:04:15.981Z,0
2017-02-14T05:05:15.220Z,0
2017-02-14T05:06:16.303Z,0
2017-02-14T05:07:15.662Z,0
2017-02-14T05:08:15.699Z,0
2017-02-14T05:09:15.319Z,0
2017-02-14T05:10:15.735Z,0
2017-02-14T05:11:15.626Z,0
2017-02-14T05:12:15.393Z,0
2017-02-14T05:13:15.438Z,0
2017-02-14T05:14:15.461Z,0
2017-02-14T05:15:15.872Z,0
2017-02-14T05:16:16.544Z,0
2017-02-14T05:17:15.941Z,0
2017-02-14T05:18:15.549Z,0
2017-02-14T05:19:15.574Z,0
2017-02-14T05:20:16.007Z,0
2017-02-14T05:21:16.294Z,0
2017-02-14T05:22:16.056Z,0
2017-02-14T05:23:16.099Z,0
2017-02-14T05:24:15.714Z,0
2017-02-14T05:25:15.739Z,0
2017-02-14T05:26:16.142Z,0
2017-02-14T05:27:16.427Z,0
2017-02-14T05:28:15.792Z,0
2017-02-14T05:29:16.217Z,0
2017-02-14T05:30:16.651Z,0
2017-02-14T05:31:15.894Z,0
2017-02-14T05:32:16.556Z,0
2017-02-14T05:33:16.324Z,0
2017-02-14T05:34:16.352Z,0
2017-02-14T05:35:16.001Z,0
2017-02-14T05:36:16.399Z,0
2017-02-14T05:37:16.692Z,0
2017-02-14T05:38:16.463Z,0
2017-02-14T05:39:16.493Z,0
2017-02-14T05:40:16.509Z,0
2017-02-14T05:41:16.146Z,0
2017-02-14T05:42:17.071Z,0
2017-02-14T05:43:16.988Z,0
2017-02-14T05:44:16.620Z,0
2017-02-14T05:45:16.650Z,0
2017-02-14T05:46:16.258Z,0
2017-02-14T05:47:17.358Z,0
2017-02-14T05:48:16.711Z,0
2017-02-14T05:49:16.764Z,0
2017-02-14T05:50:16.757Z,0
2017-02-14T05:51:16.398Z,0
2017-02-14T05:52:17.078Z,0
2017-02-14T05:53:16.839Z,0
2017-02-14T05:54:16.863Z,0
2017-02-14T05:55:16.890Z,0
2017-02-14T05:56:16.921Z,0
2017-02-14T05:57:17.449Z,0
2017-02-14T05:58:16.599Z,0
2017-02-14T05:59:17.007Z,0
2017-02-14T06:00:17.020Z,0
2017-02-14T06:01:17.441Z,0
2017-02-14T06:02:16.937Z,0
2017-02-14T06:03:17.118Z,0
2017-02-14T06:04:16.731Z,0
2017-02-14T06:05:17.552Z,0
2017-02-14T06:06:17.180Z,0
2017-02-14T06:07:17.060Z,0
2017-02-14T06:08:17.226Z,0
2017-02-14T06:09:17.255Z,0
2017-02-14T06:10:17.275Z,0
2017-02-14T06:11:17.301Z,0
2017-02-14T06:12:17.600Z,0
2017-02-14T06:13:17.374Z,0
2017-02-14T06:14:17.387Z,0
2017-02-14T06:15:17.427Z,0
2017-02-14T06:16:16.656Z,0
2017-02-14T06:17:16.948Z,0
2017-02-14T06:18:16.692Z,0
2017-02-14T06:19:17.115Z,4
2017-02-14T06:20:17.547Z,0
2017-02-14T06:21:17.583Z,0
2017-02-14T06:22:17.049Z,4
2017-02-14T06:23:16.825Z,4
2017-02-14T06:24:17.651Z,4
2017-02-14T06:25:17.672Z,4
2017-02-14T06:26:17.299Z,4
2017-02-14T06:27:17.328Z,8
2017-02-14T06:28:17.612Z,8
2017-02-14T06:29:17.766Z,12
2017-02-14T06:30:17.014Z,12
2017-02-14T06:31:17.442Z,12
2017-02-14T06:32:17.844Z,16
2017-02-14T06:33:17.737Z,16
2017-02-14T06:34:17.913Z,20
2017-02-14T06:35:18.323Z,24
2017-02-14T06:36:18.352Z,24
2017-02-14T06:37:17.988Z,28
2017-02-14T06:38:17.870Z,32
2017-02-14T06:39:18.436Z,32
2017-02-14T06:40:18.069Z,40
2017-02-14T06:41:17.690Z,40
2017-02-14T06:42:17.708Z,48
2017-02-14T06:43:18.384Z,52
2017-02-14T06:44:17.772Z,56
2017-02-14T06:45:18.190Z,64
2017-02-14T06:46:18.623Z,68
2017-02-14T06:47:18.643Z,72
2017-02-14T06:48:19.188Z,76
2017-02-14T06:49:18.291Z,88
2017-02-14T06:50:17.544Z,92
2017-02-14T06:51:18.742Z,96
2017-02-14T06:52:18.379Z,108
2017-02-14T06:53:18.655Z,116
2017-02-14T06:54:18.419Z,120
2017-02-14T06:55:18.457Z,132
2017-02-14T06:56:18.865Z,136
2017-02-14T06:57:18.119Z,144
2017-02-14T06:58:19.183Z,156
2017-02-14T06:59:18.588Z,164
2017-02-14T07:00:17.776Z,172
2017-02-14T07:01:18.620Z,184
2017-02-14T07:02:18.238Z,192
2017-02-14T07:03:19.166Z,200
2017-02-14T07:04:19.092Z,212
2017-02-14T07:05:18.303Z,220
2017-02-14T07:06:19.152Z,232
2017-02-14T07:07:19.169Z,240
2017-02-14T07:08:19.050Z,252
2017-02-14T07:09:19.218Z,260
2017-02-14T07:10:18.853Z,272
2017-02-14T07:11:18.880Z,284
2017-02-14T07:12:18.501Z,292
2017-02-14T07:13:18.771Z,300
2017-02-14T07:14:18.939Z,312
2017-02-14T07:15:18.577Z,328
2017-02-14T07:16:18.600Z,336
2017-02-14T07:17:18.641Z,348
2017-02-14T07:18:19.302Z,360
2017-02-14T07:19:18.671Z,368
2017-02-14T07:20:19.104Z,380
2017-02-14T07:21:19.116Z,392
2017-02-14T07:22:19.168Z,408
2017-02-14T07:23:19.045Z,448
2017-02-14T07:24:19.222Z,516
2017-02-14T07:25:19.239Z,568
2017-02-14T07:26:19.272Z,608
2017-02-14T07:27:19.697Z,628
2017-02-14T07:28:19.205Z,652
2017-02-14T07:29:18.942Z,672
2017-02-14T07:30:19.759Z,696
2017-02-14T07:31:18.999Z,708
2017-02-14T07:32:19.804Z,724
2017-02-14T07:33:19.437Z,748
2017-02-14T07:34:19.734Z,760
2017-02-14T07:35:19.889Z,772
2017-02-14T07:36:19.527Z,784
2017-02-14T07:37:19.545Z,796
2017-02-14T07:38:19.561Z,808
2017-02-14T07:39:19.858Z,820
2017-02-14T07:40:20.030Z,832
2017-02-14T07:41:19.267Z,840
2017-02-14T07:42:19.283Z,844
2017-02-14T07:43:19.720Z,848
2017-02-14T07:44:19.578Z,856
2017-02-14T07:45:19.778Z,860
2017-02-14T07:46:19.809Z,868
2017-02-14T07:47:19.403Z,884
2017-02-14T07:48:19.064Z,888
2017-02-14T07:49:20.117Z,896
2017-02-14T07:50:19.880Z,904
2017-02-14T07:51:19.524Z,908
2017-02-14T07:52:19.551Z,916
2017-02-14T07:53:19.996Z,920
2017-02-14T07:54:20.241Z,920
2017-02-14T07:55:19.223Z,924
2017-02-14T07:56:20.455Z,928
2017-02-14T07:57:20.459Z,936
2017-02-14T07:58:20.096Z,940
2017-02-14T07:59:19.586Z,948
2017-02-14T08:00:20.537Z,956
2017-02-14T08:01:20.169Z,964
2017-02-14T08:02:20.210Z,976
2017-02-14T08:03:19.833Z,984
2017-02-14T08:04:20.763Z,988
2017-02-14T08:05:20.709Z,996
2017-02-14T08:06:20.301Z,1004
2017-02-14T08:07:20.726Z,1012
2017-02-14T08:08:19.587Z,1032
2017-02-14T08:09:21.039Z,1060
2017-02-14T08:10:20.412Z,1092
2017-02-14T08:11:20.844Z,1120
2017-02-14T08:12:20.869Z,1148
2017-02-14T08:13:20.889Z,1192
2017-02-14T08:14:20.384Z,1244
2017-02-14T08:15:20.535Z,1308
2017-02-14T08:16:20.576Z,1376
2017-02-14T08:17:21.009Z,1452
2017-02-14T08:18:20.233Z,1536
2017-02-14T08:19:21.295Z,1652
2017-02-14T08:20:21.070Z,1752
2017-02-14T08:21:21.108Z,1836
2017-02-14T08:22:20.729Z,1900
2017-02-14T08:23:20.349Z,2132
2017-02-14T08:24:21.028Z,2828
2017-02-14T08:25:20.415Z,3792
2017-02-14T08:26:20.843Z,4120
2017-02-14T08:27:20.877Z,4344
2017-02-14T08:28:20.093Z,4912
2017-02-14T08:29:21.170Z,5684
2017-02-14T08:30:21.347Z,6160
2017-02-14T08:31:20.954Z,6140
2017-02-14T08:32:21.011Z,6520
2017-02-14T08:33:20.633Z,7524
2017-02-14T08:34:21.293Z,8520
2017-02-14T08:35:21.078Z,8864
2017-02-14T08:36:20.702Z,6704
2017-02-14T08:37:21.131Z,4112
2017-02-14T08:38:20.391Z,3252
2017-02-14T08:39:20.791Z,2876
2017-02-14T08:40:21.454Z,2828
2017-02-14T08:41:22.651Z,2724
2017-02-14T08:42:20.867Z,2652
2017-02-14T08:43:20.902Z,2596
2017-02-14T08:44:21.705Z,2560
2017-02-14T08:45:21.593Z,2512
2017-02-14T08:46:20.981Z,2440
2017-02-14T08:47:21.010Z,2380
2017-02-14T08:48:21.420Z,2344
2017-02-14T08:49:21.460Z,2304
2017-02-14T08:50:21.333Z,2276
2017-02-14T08:51:21.909Z,2236
2017-02-14T08:52:21.130Z,2216
2017-02-14T08:53:21.167Z,2192
2017-02-14T08:54:21.184Z,2176
2017-02-14T08:55:21.720Z,2164
2017-02-14T08:56:21.637Z,2156
2017-02-14T08:57:21.271Z,2152
2017-02-14T08:58:21.300Z,2148
2017-02-14T08:59:21.716Z,2144
2017-02-14T09:00:22.400Z,2140
2017-02-14T09:01:22.186Z,2148
2017-02-14T09:02:21.806Z,2156
2017-02-14T09:03:21.814Z,2172
2017-02-14T09:04:21.454Z,2176
2017-02-14T09:05:22.127Z,2200
2017-02-14T09:06:21.904Z,2228
2017-02-14T09:07:21.937Z,2252
2017-02-14T09:08:21.562Z,2256
2017-02-14T09:09:22.387Z,2256
2017-02-14T09:10:22.524Z,2248
2017-02-14T09:11:22.064Z,2236
2017-02-14T09:12:22.085Z,2216
2017-02-14T09:13:21.689Z,2204
2017-02-14T09:14:21.329Z,2188
2017-02-14T09:15:23.059Z,2172
2017-02-14T09:16:21.376Z,2152
2017-02-14T09:17:21.835Z,2132
2017-02-14T09:18:22.647Z,2116
2017-02-14T09:19:21.878Z,2108
2017-02-14T09:20:22.941Z,2096
2017-02-14T09:21:22.326Z,2084
2017-02-14T09:22:21.935Z,2076
2017-02-14T09:23:22.365Z,2060
2017-02-14T09:24:22.387Z,2040
2017-02-14T09:25:23.329Z,2020
2017-02-14T09:26:22.447Z,2008
2017-02-14T09:27:21.692Z,2004
2017-02-14T09:28:22.901Z,1992
2017-02-14T09:29:22.130Z,1984
2017-02-14T09:30:23.202Z,1980
2017-02-14T09:31:21.787Z,1968
2017-02-14T09:32:21.823Z,1952
2017-02-14T09:33:22.233Z,1944
2017-02-14T09:34:22.668Z,1940
2017-02-14T09:35:22.951Z,1936
2017-02-14T09:36:22.734Z,1936
2017-02-14T09:37:23.171Z,1932
2017-02-14T09:38:23.168Z,1924
2017-02-14T09:39:22.393Z,1920
2017-02-14T09:40:23.068Z,1920
2017-02-14T09:41:22.850Z,1920
2017-02-14T09:42:22.883Z,1928
2017-02-14T09:43:22.500Z,1940
2017-02-14T09:44:22.540Z,1952
2017-02-14T09:45:22.576Z,1964
2017-02-14T09:46:23.001Z,1980
2017-02-14T09:47:22.214Z,1980
2017-02-14T09:48:23.428Z,1984
2017-02-14T09:49:23.452Z,1992
2017-02-14T09:50:23.089Z,2000
2017-02-14T09:51:22.345Z,2004
2017-02-14T09:52:22.749Z,2012
2017-02-14T09:53:23.570Z,2020
2017-02-14T09:54:22.795Z,2036
2017-02-14T09:55:23.224Z,2056
2017-02-14T09:56:23.112Z,2064
2017-02-14T09:57:23.270Z,2080
2017-02-14T09:58:23.291Z,2088
2017-02-14T09:59:23.724Z,2104
2017-02-14T10:00:23.764Z,2132
2017-02-14T10:01:23.893Z,2148
2017-02-14T10:02:23.017Z,2168
2017-02-14T10:03:23.848Z,2184
2017-02-14T10:04:23.493Z,2196
2017-02-14T10:05:23.512Z,2220
2017-02-14T10:06:23.389Z,2228
2017-02-14T10:07:23.546Z,2244
2017-02-14T10:08:23.975Z,2256
2017-02-14T10:09:23.602Z,2276
2017-02-14T10:10:23.624Z,2300
2017-02-14T10:11:23.928Z,2320
2017-02-14T10:12:22.913Z,2332
2017-02-14T10:13:23.325Z,2352
2017-02-14T10:14:23.396Z,2372
2017-02-14T10:15:23.372Z,2392
2017-02-14T10:16:24.684Z,2412
2017-02-14T10:17:23.833Z,2432
2017-02-14T10:18:23.853Z,2456
2017-02-14T10:19:23.887Z,2472
2017-02-14T10:20:23.499Z,2492
2017-02-14T10:21:24.172Z,2508
2017-02-14T10:22:23.955Z,2524
2017-02-14T10:23:24.002Z,2552
2017-02-14T10:24:23.213Z,2572
2017-02-14T10:25:24.431Z,2588
2017-02-14T10:26:24.315Z,2600
2017-02-14T10:27:24.087Z,2612
2017-02-14T10:28:24.514Z,2624
2017-02-14T10:29:24.146Z,2628
2017-02-14T10:30:24.185Z,2628
2017-02-14T10:31:24.475Z,2636
2017-02-14T10:32:23.836Z,2640
2017-02-14T10:33:23.872Z,2648
2017-02-14T10:34:24.677Z,2648
2017-02-14T10:35:23.910Z,2652
2017-02-14T10:36:24.573Z,2656
2017-02-14T10:37:24.791Z,2652
2017-02-14T10:38:24.785Z,2672
2017-02-14T10:39:24.017Z,2696
2017-02-14T10:40:24.946Z,2736
2017-02-14T10:41:24.477Z,2776
2017-02-14T10:42:24.504Z,2800
2017-02-14T10:43:24.132Z,2824
2017-02-14T10:44:24.164Z,2844
2017-02-14T10:45:24.045Z,2864
2017-02-14T10:46:24.602Z,2880
2017-02-14T10:47:24.249Z,2896
2017-02-14T10:48:24.655Z,2912
2017-02-14T10:49:24.296Z,2916
2017-02-14T10:50:24.565Z,2924
2017-02-14T10:51:24.354Z,2940
2017-02-14T10:52:25.163Z,2948
2017-02-14T10:53:24.800Z,2960
2017-02-14T10:54:24.836Z,2980
2017-02-14T10:55:24.305Z,2992
2017-02-14T10:56:25.266Z,2996
2017-02-14T10:57:24.909Z,3004
2017-02-14T10:58:24.971Z,3016
2017-02-14T10:59:24.968Z,3024
2017-02-14T11:00:25.645Z,3032
2017-02-14T11:01:25.033Z,3044
2017-02-14T11:02:25.459Z,3052
2017-02-14T11:03:25.478Z,3064
2017-02-14T11:04:24.699Z,3076
2017-02-14T11:05:24.622Z,3084
2017-02-14T11:06:24.748Z,3092
2017-02-14T11:07:25.587Z,3124
2017-02-14T11:08:25.215Z,3180
2017-02-14T11:09:24.870Z,3224
2017-02-14T11:10:25.508Z,3276
2017-02-14T11:11:24.900Z,3300
2017-02-14T11:12:24.966Z,3320
2017-02-14T11:13:25.369Z,3356
2017-02-14T11:14:24.979Z,3488
2017-02-14T11:15:25.251Z,3688
2017-02-14T11:16:25.033Z,3824
2017-02-14T11:17:25.458Z,3868
2017-02-14T11:18:25.885Z,3896
2017-02-14T11:19:25.114Z,3940
2017-02-14T11:20:25.408Z,4032
2017-02-14T11:21:25.564Z,4148
2017-02-14T11:22:25.585Z,4256
2017-02-14T11:23:25.238Z,4356
2017-02-14T11:24:26.070Z,4456
2017-02-14T11:25:26.323Z,4540
2017-02-14T11:26:26.097Z,4632
2017-02-14T11:27:25.728Z,4692
2017-02-14T11:28:25.352Z,4700
2017-02-14T11:29:25.392Z,4720
2017-02-14T11:30:26.059Z,4748
2017-02-14T11:31:25.855Z,4808
2017-02-14T11:32:25.888Z,4840
2017-02-14T11:33:25.112Z,4844
2017-02-14T11:34:25.529Z,4880
2017-02-14T11:35:26.607Z,4940
2017-02-14T11:36:26.375Z,4968
2017-02-14T11:37:26.415Z,5004
2017-02-14T11:38:25.637Z,5024
2017-02-14T11:39:25.665Z,5024
2017-02-14T11:40:25.698Z,5052
2017-02-14T11:41:25.724Z,5068
2017-02-14T11:42:25.748Z,5104
2017-02-14T11:43:25.786Z,5136
2017-02-14T11:44:25.805Z,5180
2017-02-14T11:45:26.230Z,5200
2017-02-14T11:46:26.662Z,5204
2017-02-14T11:47:26.282Z,5224
2017-02-14T11:48:25.517Z,5220
2017-02-14T11:49:26.752Z,5224
2017-02-14T11:50:26.785Z,5236
2017-02-14T11:51:26.409Z,5232
2017-02-14T11:52:26.411Z,5260
2017-02-14T11:53:26.071Z,5256
2017-02-14T11:54:26.489Z,5256
2017-02-14T11:55:26.523Z,5172
2017-02-14T11:56:26.930Z,5228
2017-02-14T11:57:26.558Z,5236
2017-02-14T11:58:26.979Z,5204
2017-02-14T11:59:26.620Z,5208
2017-02-14T12:00:26.246Z,5180
2017-02-14T12:01:26.285Z,5160
2017-02-14T12:02:27.094Z,5156
2017-02-14T12:03:27.151Z,5152
2017-02-14T12:04:26.362Z,5152
2017-02-14T12:05:26.391Z,5144
2017-02-14T12:06:26.434Z,5152
2017-02-14T12:07:27.249Z,5144
2017-02-14T12:08:26.500Z,5120
2017-02-14T12:09:26.112Z,5132
2017-02-14T12:10:26.129Z,5176
2017-02-14T12:11:27.213Z,5200
2017-02-14T12:12:27.003Z,5232
2017-02-14T12:13:27.019Z,5268
2017-02-14T12:14:26.271Z,5344
2017-02-14T12:15:27.072Z,5452
2017-02-14T12:16:26.961Z,5496
2017-02-14T12:17:27.538Z,5544
2017-02-14T12:18:27.157Z,5552
2017-02-14T12:19:27.179Z,5556
2017-02-14T12:20:26.811Z,5832
2017-02-14T12:21:27.522Z,6488
2017-02-14T12:22:27.275Z,6904
2017-02-14T12:23:26.921Z,7012
2017-02-14T12:24:26.922Z,7140
2017-02-14T12:25:27.354Z,7204
2017-02-14T12:26:27.235Z,7200
2017-02-14T12:27:27.413Z,7152
2017-02-14T12:28:27.837Z,7152
2017-02-14T12:29:27.473Z,7128
2017-02-14T12:30:27.138Z,7080
2017-02-14T12:31:27.791Z,7012
2017-02-14T12:32:27.155Z,6992
2017-02-14T12:33:27.590Z,7024
2017-02-14T12:34:27.212Z,7080
2017-02-14T12:35:27.686Z,7144
2017-02-14T12:36:27.527Z,7192
2017-02-14T12:37:28.092Z,7204
2017-02-14T12:38:28.132Z,7244
2017-02-14T12:39:26.965Z,7324
2017-02-14T12:40:27.809Z,7452
2017-02-14T12:41:27.678Z,7528
2017-02-14T12:42:27.851Z,7516
2017-02-14T12:43:27.877Z,7504
2017-02-14T12:44:27.909Z,7532
2017-02-14T12:45:28.350Z,7552
2017-02-14T12:46:28.618Z,7540
2017-02-14T12:47:27.999Z,7452
2017-02-14T12:48:28.411Z,7424
2017-02-14T12:49:28.055Z,7396
2017-02-14T12:50:27.708Z,7296
2017-02-14T12:51:28.387Z,7284
2017-02-14T12:52:28.142Z,7200
2017-02-14T12:53:28.183Z,7180
2017-02-14T12:54:28.606Z,7140
2017-02-14T12:55:27.855Z,7152
2017-02-14T12:56:28.129Z,7168
2017-02-14T12:57:27.902Z,7080
2017-02-14T12:58:28.718Z,7000
2017-02-14T12:59:28.351Z,7020
2017-02-14T13:00:28.007Z,7020
2017-02-14T13:01:29.061Z,6948
2017-02-14T13:02:28.854Z,6824
2017-02-14T13:03:28.489Z,6736
2017-02-14T13:04:28.111Z,6664
2017-02-14T13:05:28.534Z,6548
2017-02-14T13:06:28.423Z,6460
2017-02-14T13:07:28.993Z,6360
2017-02-14T13:08:28.226Z,6292
2017-02-14T13:09:29.067Z,6196
2017-02-14T13:10:28.282Z,6140
2017-02-14T13:11:28.563Z,6100
2017-02-14T13:12:29.165Z,6044
2017-02-14T13:13:28.378Z,5952
2017-02-14T13:14:28.422Z,5856
2017-02-14T13:15:28.439Z,5820
2017-02-14T13:16:29.109Z,5800
2017-02-14T13:17:28.896Z,5732
2017-02-14T13:18:29.331Z,5552
2017-02-14T13:19:28.177Z,5444
2017-02-14T13:20:28.601Z,5392
2017-02-14T13:21:28.866Z,5316
2017-02-14T13:22:28.642Z,5284
2017-02-14T13:23:28.291Z,5232
2017-02-14T13:24:28.700Z,5184
2017-02-14T13:25:29.176Z,5120
2017-02-14T13:26:29.411Z,5072
2017-02-14T13:27:29.600Z,5044
2017-02-14T13:28:29.638Z,5012
2017-02-14T13:29:29.241Z,4952
2017-02-14T13:30:29.702Z,4872
2017-02-14T13:31:29.562Z,4800
2017-02-14T13:32:29.360Z,4724
2017-02-14T13:33:29.392Z,4592
2017-02-14T13:34:28.609Z,4216
2017-02-14T13:35:29.038Z,3844
2017-02-14T13:36:30.113Z,3672
2017-02-14T13:37:29.111Z,3596
2017-02-14T13:38:29.528Z,3620
2017-02-14T13:39:29.563Z,3848
2017-02-14T13:40:29.584Z,4196
2017-02-14T13:41:29.862Z,4268
2017-02-14T13:42:29.260Z,4248
2017-02-14T13:43:29.666Z,4224
2017-02-14T13:44:30.100Z,4172
2017-02-14T13:45:30.146Z,4124
2017-02-14T13:46:30.426Z,4076
2017-02-14T13:47:30.199Z,3928
2017-02-14T13:48:30.239Z,3792
2017-02-14T13:49:29.868Z,3732
2017-02-14T13:50:29.493Z,3652
2017-02-14T13:51:29.383Z,3520
2017-02-14T13:52:29.939Z,3620
2017-02-14T13:53:29.987Z,3692
2017-02-14T13:54:30.016Z,3700
2017-02-14T13:55:30.432Z,3724
2017-02-14T13:56:30.326Z,3716
2017-02-14T13:57:30.503Z,3696
2017-02-14T13:58:30.531Z,3632
2017-02-14T13:59:30.163Z,3540
2017-02-14T14:00:30.210Z,3424
2017-02-14T14:01:29.425Z,3324